Idanha, Oregon
Current Conditions -  °F | °C
As of 11:56 PM on Monday 26 Jan 2015 (Local Time) from KSLE Reporting Station
Moderate Fog Moderate Fog  
Wind Chill: 45°   Ceiling: 200
Heat Index: 45°   Visibility: 0.25mi
Dew Point: 44°   Wind: 0mph
Humidity: 97%   Direction: NA
Pressure: 30.02"   Gusts: NA
Location:  44.7°N, 122.08°W
Report Text: KSLE 270756Z AUTO 00000KT 1/4SM R31/1600V1800FT FG VV002 07/07 A3002 RMK AO2 SLP166 T00720067 401170050
Loading
Personal Weather Stations






























Interactive Weather Map New forecast layout! Learn more

10-Day Weather Forecast

Advertisements
Track Severe Weather on mobile